createdAt,value
2023-04-18T00:03:28.897Z,13.20
2023-04-18T00:07:28.038Z,14.30
2023-04-18T00:11:29.005Z,13.10
2023-04-18T00:15:28.277Z,13.40
2023-04-18T00:19:28.062Z,14.30
2023-04-18T00:23:29.225Z,14.60
2023-04-18T00:31:28.178Z,14.60
2023-04-18T00:35:27.890Z,14.00
2023-04-18T00:39:28.018Z,14.50
2023-04-18T00:43:27.894Z,14.90
2023-04-18T00:47:28.270Z,15.50
2023-04-18T00:51:28.060Z,15.20
2023-04-18T00:59:28.648Z,14.90
2023-04-18T01:03:28.194Z,14.20
2023-04-18T01:07:29.766Z,14.90
2023-04-18T01:11:28.259Z,14.70
2023-04-18T01:15:28.205Z,15.20
2023-04-18T01:19:28.065Z,14.50
2023-04-18T01:23:29.220Z,14.10
2023-04-18T01:35:29.062Z,14.80
2023-04-18T01:39:28.109Z,15.60
2023-04-18T01:43:28.496Z,15.40
2023-04-18T01:47:28.153Z,15.50
2023-04-18T01:51:28.256Z,14.40
2023-04-18T01:55:28.173Z,14.40
2023-04-18T01:59:28.267Z,13.70
2023-04-18T02:03:28.334Z,13.40
2023-04-18T02:07:28.244Z,14.20
2023-04-18T02:11:28.854Z,14.40
2023-04-18T02:15:28.366Z,15.00
2023-04-18T02:23:28.371Z,17.00
2023-04-18T02:27:28.150Z,16.40
2023-04-18T02:31:28.301Z,16.80
2023-04-18T02:35:28.288Z,20.20
2023-04-18T02:39:28.537Z,14.70
2023-04-18T02:47:28.488Z,16.70
2023-04-18T02:51:28.367Z,15.20
2023-04-18T02:55:29.119Z,16.10
2023-04-18T02:59:28.422Z,14.30
2023-04-18T03:03:28.727Z,13.70
2023-04-18T03:07:29.774Z,15.00
2023-04-18T03:11:28.455Z,14.00
2023-04-18T03:15:30.022Z,14.80
2023-04-18T03:19:28.609Z,15.90
2023-04-18T03:23:28.335Z,15.10
2023-04-18T03:27:28.565Z,15.30
2023-04-18T03:31:28.390Z,14.30
2023-04-18T03:35:28.600Z,14.30
2023-04-18T03:39:28.422Z,14.40
2023-04-18T03:43:28.487Z,13.20
2023-04-18T03:47:30.222Z,13.40
2023-04-18T03:51:32.421Z,13.30
2023-04-18T03:55:28.537Z,13.00
2023-04-18T03:59:28.568Z,13.80
2023-04-18T04:03:29.085Z,13.20
2023-04-18T04:07:28.879Z,13.40
2023-04-18T04:11:28.508Z,13.40
2023-04-18T04:19:28.780Z,13.40
2023-04-18T04:27:28.671Z,13.40
2023-04-18T04:31:28.592Z,13.00
2023-04-18T04:35:28.833Z,13.00
2023-04-18T04:39:28.545Z,13.50
2023-04-18T04:43:29.238Z,13.20
2023-04-18T04:47:28.635Z,13.20
2023-04-18T04:51:29.048Z,12.00
2023-04-18T04:55:28.866Z,12.70
2023-04-18T04:59:28.701Z,13.20
2023-04-18T05:03:28.854Z,12.70
2023-04-18T05:07:29.864Z,13.30
2023-04-18T05:11:28.649Z,13.30
2023-04-18T05:15:29.062Z,13.50
2023-04-18T05:19:28.793Z,13.30
2023-04-18T05:27:28.863Z,12.80
2023-04-18T05:35:30.038Z,13.20
2023-04-18T05:39:28.744Z,13.50
2023-04-18T05:43:28.915Z,13.80
2023-04-18T05:47:29.326Z,13.90
2023-04-18T05:51:28.923Z,13.70
2023-04-18T05:55:28.790Z,14.10
2023-04-18T05:59:28.923Z,14.70
2023-04-18T06:03:29.124Z,13.60
2023-04-18T06:07:28.890Z,14.20
2023-04-18T06:11:28.848Z,14.00
2023-04-18T06:15:29.059Z,13.80
2023-04-18T06:19:28.828Z,14.90
2023-04-18T06:23:29.113Z,13.90
2023-04-18T06:27:31.424Z,13.00
2023-04-18T06:31:29.302Z,13.70
2023-04-18T06:35:30.053Z,14.10
2023-04-18T06:39:29.244Z,14.10
2023-04-18T06:43:28.918Z,14.40
2023-04-18T06:47:30.184Z,14.10
2023-04-18T06:51:29.068Z,14.30
2023-04-18T06:55:29.663Z,14.80
2023-04-18T06:59:28.950Z,14.40
2023-04-18T07:03:29.111Z,15.10
2023-04-18T07:07:30.062Z,14.60
2023-04-18T07:11:29.159Z,14.90
2023-04-18T07:15:29.271Z,14.50
2023-04-18T07:19:29.212Z,14.70
2023-04-18T07:23:28.988Z,14.50
2023-04-18T07:27:29.123Z,14.60
2023-04-18T07:31:30.245Z,15.20
2023-04-18T07:39:30.955Z,14.40
2023-04-18T07:43:29.246Z,14.80
2023-04-18T07:47:30.235Z,14.60
2023-04-18T07:51:30.736Z,13.90
2023-04-18T07:55:29.679Z,14.60
2023-04-18T07:59:31.101Z,13.80
2023-04-18T08:03:29.400Z,13.60
2023-04-18T08:07:30.856Z,14.20
2023-04-18T08:15:31.375Z,12.70
2023-04-18T08:19:29.150Z,12.60
2023-04-18T08:23:29.389Z,12.00
2023-04-18T08:27:30.340Z,11.50
2023-04-18T08:31:30.577Z,11.20
2023-04-18T08:35:29.229Z,10.80
2023-04-18T08:39:30.203Z,11.10
2023-04-18T08:43:30.216Z,10.70
2023-04-18T08:47:30.108Z,11.10
2023-04-18T08:51:31.968Z,10.30
2023-04-18T08:55:29.352Z,10.10
2023-04-18T08:59:29.541Z,9.30
2023-04-18T09:03:38.730Z,9.10
2023-04-18T09:07:29.758Z,9.70
2023-04-18T09:11:30.736Z,9.00
2023-04-18T09:15:30.001Z,9.00
2023-04-18T09:19:29.494Z,9.10
2023-04-18T09:23:29.341Z,8.80
2023-04-18T09:27:33.727Z,9.40
2023-04-18T09:31:29.429Z,8.70
2023-04-18T09:35:29.537Z,8.60
2023-04-18T09:43:29.496Z,8.20
2023-04-18T09:47:31.294Z,7.80
2023-04-18T09:51:30.899Z,7.30
2023-04-18T09:55:30.936Z,6.70
2023-04-18T09:59:39.280Z,6.80
2023-04-18T10:03:33.946Z,6.40
2023-04-18T10:07:30.704Z,6.70
2023-04-18T10:11:30.349Z,7.10
2023-04-18T10:15:30.830Z,6.70
2023-04-18T10:19:29.769Z,7.20
2023-04-18T10:23:34.020Z,6.80
2023-04-18T10:27:49.488Z,6.60
2023-04-18T10:31:38.170Z,6.00
2023-04-18T10:35:29.579Z,6.30
2023-04-18T10:39:29.977Z,6.00
2023-04-18T10:43:29.684Z,6.20
2023-04-18T10:47:29.947Z,6.40
2023-04-18T10:51:29.759Z,5.70
2023-04-18T10:55:30.434Z,5.80
2023-04-18T10:59:31.323Z,5.60
2023-04-18T11:03:31.713Z,5.40
2023-04-18T11:07:31.576Z,4.80
2023-04-18T11:11:29.774Z,4.70
2023-04-18T11:15:31.004Z,5.20
2023-04-18T11:19:29.943Z,5.20
2023-04-18T11:23:29.694Z,4.60
2023-04-18T11:27:30.586Z,4.90
2023-04-18T11:31:31.251Z,4.80
2023-04-18T11:35:30.179Z,4.50
2023-04-18T11:39:33.578Z,4.90
2023-04-18T11:43:29.980Z,4.60
2023-04-18T11:47:32.899Z,5.00
2023-04-18T11:51:37.269Z,5.00
2023-04-18T11:55:29.824Z,5.10
2023-04-18T11:59:30.107Z,4.60
2023-04-18T12:03:30.066Z,5.00
2023-04-18T12:07:33.317Z,4.90
2023-04-18T12:11:29.825Z,4.30
2023-04-18T12:15:30.936Z,4.50
2023-04-18T12:19:31.622Z,4.90
2023-04-18T12:23:32.825Z,4.10
2023-04-18T12:27:48.872Z,4.40
2023-04-18T12:31:30.154Z,4.40
2023-04-18T12:35:31.632Z,4.00
2023-04-18T12:39:30.024Z,4.40
2023-04-18T12:43:29.974Z,4.20
2023-04-18T12:47:30.613Z,4.20
2023-04-18T12:51:30.424Z,4.60
2023-04-18T12:55:30.323Z,4.50
2023-04-18T12:59:29.889Z,4.80
2023-04-18T13:03:31.090Z,5.50
2023-04-18T13:07:30.508Z,4.70
2023-04-18T13:11:30.518Z,5.10
2023-04-18T13:15:30.073Z,5.10
2023-04-18T13:19:30.659Z,4.70
2023-04-18T13:23:29.961Z,4.50
2023-04-18T13:27:30.348Z,5.10
2023-04-18T13:31:30.465Z,4.20
2023-04-18T13:35:30.234Z,4.10
2023-04-18T13:39:32.236Z,4.00
2023-04-18T13:47:30.640Z,3.40
2023-04-18T13:51:30.700Z,3.60
2023-04-18T13:55:30.165Z,3.80
2023-04-18T13:59:31.141Z,3.80
2023-04-18T14:03:30.569Z,4.00
2023-04-18T14:07:30.251Z,3.80
2023-04-18T14:11:30.323Z,3.60
2023-04-18T14:15:32.067Z,3.80
2023-04-18T14:19:30.284Z,3.80
2023-04-18T14:23:30.181Z,3.50
2023-04-18T14:27:30.397Z,4.20
2023-04-18T14:31:30.300Z,4.20
2023-04-18T14:35:31.188Z,3.70
2023-04-18T14:39:30.425Z,3.70
2023-04-18T14:43:30.506Z,4.50
2023-04-18T14:47:33.545Z,4.20
2023-04-18T14:51:30.356Z,3.90
2023-04-18T14:55:32.536Z,4.20
2023-04-18T14:59:30.432Z,4.80
2023-04-18T15:03:31.127Z,4.20
2023-04-18T15:07:30.646Z,4.50
2023-04-18T15:11:30.309Z,4.20
2023-04-18T15:15:33.983Z,3.80
2023-04-18T15:19:30.871Z,3.90
2023-04-18T15:23:30.947Z,3.50
2023-04-18T15:27:30.374Z,4.00
2023-04-18T15:31:30.598Z,3.60
2023-04-18T15:35:30.523Z,3.70
2023-04-18T15:39:30.460Z,3.20
2023-04-18T15:43:30.546Z,3.50
2023-04-18T15:47:32.655Z,3.50
2023-04-18T15:51:30.602Z,3.50
2023-04-18T15:55:30.530Z,3.50
2023-04-18T16:07:30.667Z,3.70
2023-04-18T16:11:30.492Z,3.80
2023-04-18T16:15:30.760Z,4.30
2023-04-18T16:19:31.043Z,4.10
2023-04-18T16:23:31.232Z,3.90
2023-04-18T16:27:31.122Z,3.40
2023-04-18T16:31:30.763Z,3.80
2023-04-18T16:35:30.708Z,3.60
2023-04-18T16:39:30.841Z,3.30
2023-04-18T16:43:35.212Z,3.60
2023-04-18T16:47:30.695Z,3.70
2023-04-18T16:51:30.701Z,4.20
2023-04-18T16:55:30.943Z,4.60
2023-04-18T16:59:30.876Z,4.60
2023-04-18T17:03:31.684Z,4.50
2023-04-18T17:07:30.631Z,4.60
2023-04-18T17:11:33.721Z,4.20
2023-04-18T17:15:30.660Z,4.40
2023-04-18T17:19:30.819Z,4.20
2023-04-18T17:23:32.791Z,4.80
2023-04-18T17:27:30.695Z,4.20
2023-04-18T17:31:31.471Z,4.00
2023-04-18T17:35:31.333Z,4.10
2023-04-18T17:39:30.836Z,4.20
2023-04-18T17:43:30.965Z,4.40
2023-04-18T17:51:30.952Z,5.40
2023-04-18T17:55:30.918Z,8.20
2023-04-18T17:59:36.462Z,9.50
2023-04-18T18:03:31.019Z,8.50
2023-04-18T18:07:33.861Z,6.80
2023-04-18T18:11:31.008Z,6.10
2023-04-18T18:15:31.048Z,5.80
2023-04-18T18:19:30.992Z,5.40
2023-04-18T18:23:30.994Z,5.30
2023-04-18T18:27:31.013Z,5.70
2023-04-18T18:31:31.065Z,4.80
2023-04-18T18:35:30.844Z,5.30
2023-04-18T18:39:31.055Z,4.90
2023-04-18T18:43:31.514Z,5.40
2023-04-18T18:47:31.019Z,11.30
2023-04-18T18:51:31.668Z,12.10
2023-04-18T18:55:31.111Z,9.30
2023-04-18T18:59:31.049Z,12.50
2023-04-18T19:03:31.256Z,9.80
2023-04-18T19:11:31.114Z,6.10
2023-04-18T19:15:31.124Z,8.10
2023-04-18T19:19:32.182Z,6.40
2023-04-18T19:23:31.022Z,6.60
2023-04-18T19:31:31.156Z,15.30
2023-04-18T19:35:31.040Z,8.30
2023-04-18T19:39:31.103Z,5.30
2023-04-18T19:43:31.267Z,5.70
2023-04-18T19:47:32.842Z,5.90
2023-04-18T19:51:31.423Z,7.30
2023-04-18T19:55:31.303Z,6.20
2023-04-18T19:59:31.091Z,5.90
2023-04-18T20:03:32.306Z,6.00
2023-04-18T20:10:36.428Z,5.70
2023-04-18T20:15:31.209Z,6.30
2023-04-18T20:19:31.290Z,6.50
2023-04-18T20:23:31.389Z,7.30
2023-04-18T20:27:31.353Z,7.30
2023-04-18T20:35:31.302Z,7.80
2023-04-18T20:39:31.537Z,7.80
2023-04-18T20:43:35.556Z,8.10
2023-04-18T20:47:32.381Z,7.90
2023-04-18T20:51:31.499Z,7.70
2023-04-18T20:55:31.285Z,8.30
2023-04-18T20:59:31.552Z,8.10
2023-04-18T21:03:31.431Z,7.90
2023-04-18T21:11:31.583Z,8.30
2023-04-18T21:15:31.365Z,8.70
2023-04-18T21:19:31.443Z,7.80
2023-04-18T21:27:31.537Z,8.10
2023-04-18T21:31:32.529Z,8.80
2023-04-18T21:35:31.668Z,8.90
2023-04-18T21:39:31.391Z,8.20
2023-04-18T21:43:31.635Z,7.90
2023-04-18T21:47:31.866Z,8.00
2023-04-18T21:55:31.571Z,7.90
2023-04-18T22:03:32.954Z,8.50
2023-04-18T22:11:32.226Z,8.30
2023-04-18T22:15:32.306Z,8.50
2023-04-18T22:19:32.304Z,8.80
2023-04-18T22:27:32.012Z,8.50
2023-04-18T22:31:31.567Z,8.50
2023-04-18T22:35:31.800Z,8.40
2023-04-18T22:43:31.834Z,8.30
2023-04-18T22:47:32.564Z,9.00
2023-04-18T22:55:31.815Z,8.70
2023-04-18T23:03:33.276Z,9.60
2023-04-18T23:07:32.325Z,9.50
2023-04-18T23:11:31.785Z,8.90
2023-04-18T23:15:31.693Z,8.40
2023-04-18T23:19:31.790Z,9.40
2023-04-18T23:27:31.815Z,9.50
2023-04-18T23:31:31.892Z,9.20
2023-04-18T23:35:31.801Z,9.00
2023-04-18T23:39:31.842Z,9.70
2023-04-18T23:43:32.467Z,9.70
2023-04-18T23:47:31.888Z,9.60
2023-04-18T23:51:31.774Z,9.80
2023-04-18T23:55:31.772Z,9.10
2023-04-18T23:59:31.889Z,10.00
